createdAt,value
2023-04-08T00:00:28.141Z,1.55
2023-04-08T00:02:55.015Z,1.88
2023-04-08T00:05:21.879Z,1.70
2023-04-08T00:07:50.011Z,1.90
2023-04-08T00:10:18.321Z,1.55
2023-04-08T00:12:44.953Z,1.40
2023-04-08T00:15:11.846Z,1.42
2023-04-08T00:17:38.448Z,1.48
2023-04-08T00:20:05.926Z,1.40
2023-04-08T00:22:33.518Z,1.70
2023-04-08T00:25:00.067Z,1.00
2023-04-08T00:27:26.678Z,1.48
2023-04-08T00:29:53.182Z,1.30
2023-04-08T00:32:19.745Z,1.30
2023-04-08T00:34:46.461Z,1.17
2023-04-08T00:37:12.885Z,1.20
2023-04-08T00:39:39.269Z,1.20
2023-04-08T00:42:06.112Z,1.45
2023-04-08T00:44:32.505Z,1.20
2023-04-08T00:46:58.929Z,1.15
2023-04-08T00:49:26.485Z,1.10
2023-04-08T00:51:55.407Z,1.25
2023-04-08T00:54:21.980Z,1.10
2023-04-08T00:56:48.455Z,1.15
2023-04-08T00:59:15.300Z,0.98
2023-04-08T01:01:52.848Z,1.40
2023-04-08T01:05:01.271Z,1.27
2023-04-08T01:07:48.219Z,1.17
2023-04-08T01:10:21.236Z,1.23
2023-04-08T01:12:54.477Z,1.05
2023-04-08T01:15:21.670Z,1.10
2023-04-08T01:17:51.008Z,1.10
2023-04-08T01:20:17.664Z,1.05
2023-04-08T01:22:55.305Z,1.10
2023-04-08T01:25:30.339Z,1.00
2023-04-08T01:27:58.639Z,1.10
2023-04-08T01:30:25.939Z,1.10
2023-04-08T01:32:54.405Z,1.02
2023-04-08T01:35:21.361Z,0.80
2023-04-08T01:37:49.424Z,1.00
2023-04-08T01:40:17.050Z,1.30
2023-04-08T01:42:44.187Z,1.45
2023-04-08T01:45:23.518Z,1.67
2023-04-08T01:47:50.550Z,1.52
2023-04-08T01:50:17.271Z,1.27
2023-04-08T01:52:45.357Z,1.23
2023-04-08T01:55:11.853Z,1.20
2023-04-08T01:57:39.006Z,1.23
2023-04-08T02:00:10.271Z,1.00
2023-04-08T02:02:37.241Z,1.00
2023-04-08T02:05:04.322Z,1.13
2023-04-08T02:07:30.715Z,1.05
2023-04-08T02:09:57.185Z,1.13
2023-04-08T02:12:23.753Z,0.90
2023-04-08T02:14:50.461Z,1.00
2023-04-08T02:17:29.609Z,1.17
2023-04-08T02:20:01.289Z,1.20
2023-04-08T02:22:46.276Z,0.95
2023-04-08T02:25:15.874Z,1.05
2023-04-08T02:27:43.709Z,1.40
2023-04-08T02:30:12.035Z,1.20
2023-04-08T02:32:38.984Z,1.25
2023-04-08T02:35:06.114Z,1.50
2023-04-08T02:37:32.871Z,1.20
2023-04-08T02:39:59.679Z,1.15
2023-04-08T02:42:26.419Z,1.15
2023-04-08T02:44:52.846Z,1.45
2023-04-08T02:47:19.234Z,1.42
2023-04-08T02:49:45.934Z,1.38
2023-04-08T02:52:12.308Z,1.58
2023-04-08T02:54:38.706Z,1.52
2023-04-08T02:57:06.813Z,1.45
2023-04-08T02:59:33.160Z,1.38
2023-04-08T03:01:59.576Z,1.52
2023-04-08T03:04:25.975Z,1.60
2023-04-08T03:06:52.390Z,1.40
2023-04-08T03:09:18.764Z,1.60
2023-04-08T03:11:45.234Z,1.50
2023-04-08T03:14:11.632Z,1.63
2023-04-08T03:16:38.017Z,1.60
2023-04-08T03:19:04.435Z,1.45
2023-04-08T03:21:31.738Z,1.50
2023-04-08T03:23:58.161Z,1.50
2023-04-08T03:26:24.781Z,2.00
2023-04-08T03:28:52.783Z,1.27
2023-04-08T03:31:21.369Z,1.20
2023-04-08T03:33:47.857Z,1.45
2023-04-08T03:36:14.266Z,1.60
2023-04-08T03:38:40.706Z,1.75
2023-04-08T03:41:07.199Z,2.60
2023-04-08T03:43:34.432Z,2.42
2023-04-08T03:46:02.010Z,2.60
2023-04-08T03:48:28.508Z,2.58
2023-04-08T03:50:54.868Z,2.60
2023-04-08T03:53:21.272Z,2.20
2023-04-08T03:55:50.595Z,2.40
2023-04-08T03:58:16.980Z,2.80
2023-04-08T04:00:43.366Z,2.75
2023-04-08T04:03:12.946Z,2.63
2023-04-08T04:05:39.918Z,3.40
2023-04-08T04:08:06.425Z,3.50
2023-04-08T04:10:32.880Z,3.70
2023-04-08T04:12:59.380Z,3.10
2023-04-08T04:15:25.842Z,3.15
2023-04-08T04:17:52.278Z,3.45
2023-04-08T04:20:19.001Z,3.22
2023-04-08T04:22:45.535Z,3.17
2023-04-08T04:25:11.878Z,3.30
2023-04-08T04:27:38.263Z,2.95
2023-04-08T04:30:05.623Z,3.30
2023-04-08T04:32:32.019Z,3.28
2023-04-08T04:34:58.597Z,3.58
2023-04-08T04:37:26.276Z,4.07
2023-04-08T04:39:52.611Z,4.20
2023-04-08T04:42:19.030Z,4.80
2023-04-08T04:44:45.397Z,3.92
2023-04-08T04:47:11.758Z,3.20
2023-04-08T04:49:40.097Z,3.90
2023-04-08T04:52:06.459Z,4.20
2023-04-08T04:54:32.885Z,3.70
2023-04-08T04:56:59.331Z,4.28
2023-04-08T04:59:25.708Z,4.93
2023-04-08T05:01:52.203Z,4.32
2023-04-08T05:04:18.587Z,4.85
2023-04-08T05:06:44.927Z,4.68
2023-04-08T05:09:11.338Z,5.40
2023-04-08T05:11:37.732Z,5.22
2023-04-08T05:14:04.113Z,5.18
2023-04-08T05:16:30.603Z,4.47
2023-04-08T05:18:56.989Z,4.53
2023-04-08T05:21:23.992Z,4.80
2023-04-08T05:23:52.977Z,5.32
2023-04-08T05:26:21.708Z,5.28
2023-04-08T05:28:51.901Z,5.00
2023-04-08T05:31:19.373Z,4.38
2023-04-08T05:33:46.168Z,4.60
2023-04-08T05:36:12.909Z,5.72
2023-04-08T05:38:40.631Z,5.30
2023-04-08T05:41:07.014Z,5.20
2023-04-08T05:43:33.809Z,5.55
2023-04-08T05:46:02.813Z,5.88
2023-04-08T05:48:29.342Z,7.00
2023-04-08T05:50:56.056Z,7.63
2023-04-08T05:53:22.459Z,7.97
2023-04-08T05:55:48.925Z,7.93
2023-04-08T05:58:15.944Z,7.65
2023-04-08T06:00:42.774Z,8.10
2023-04-08T06:03:09.387Z,8.05
2023-04-08T06:05:36.007Z,7.78
2023-04-08T06:08:02.475Z,8.10
2023-04-08T06:10:28.882Z,8.43
2023-04-08T06:12:55.554Z,7.97
2023-04-08T06:15:22.334Z,8.50
2023-04-08T06:17:48.767Z,9.68
2023-04-08T06:20:15.406Z,8.82
2023-04-08T06:22:41.717Z,8.82
2023-04-08T06:25:08.445Z,8.98
2023-04-08T06:27:34.765Z,10.50
2023-04-08T06:30:01.294Z,10.23
2023-04-08T06:32:27.760Z,10.55
2023-04-08T06:34:54.112Z,9.82
2023-04-08T06:37:20.782Z,10.80
2023-04-08T06:39:47.177Z,11.18
2023-04-08T06:42:13.576Z,11.32
2023-04-08T06:44:40.177Z,13.20
2023-04-08T06:47:06.501Z,12.55
2023-04-08T06:49:32.878Z,11.77
2023-04-08T06:51:59.270Z,16.13
2023-04-08T06:54:25.607Z,20.92
2023-04-08T06:56:51.983Z,24.52
2023-04-08T06:59:18.665Z,22.73
2023-04-08T07:01:45.892Z,20.35
2023-04-08T07:04:12.445Z,18.25
2023-04-08T07:06:38.853Z,16.55
2023-04-08T07:09:05.372Z,19.75
2023-04-08T07:11:31.758Z,16.33
2023-04-08T07:13:58.135Z,13.77
2023-04-08T07:16:24.565Z,12.75
2023-04-08T07:18:51.849Z,12.48
2023-04-08T07:21:18.486Z,10.88
2023-04-08T07:23:44.876Z,10.75
2023-04-08T07:26:11.272Z,9.82
2023-04-08T07:28:37.632Z,9.50
2023-04-08T07:31:17.831Z,9.50
2023-04-08T07:33:45.261Z,11.00
2023-04-08T07:36:13.163Z,9.95
2023-04-08T07:38:39.821Z,9.93
2023-04-08T07:41:06.235Z,9.20
2023-04-08T07:43:34.341Z,10.68
2023-04-08T07:46:05.137Z,10.60
2023-04-08T07:48:32.632Z,10.70
2023-04-08T07:51:09.797Z,10.70
2023-04-08T07:53:38.114Z,9.63
2023-04-08T07:56:11.035Z,10.43
2023-04-08T07:58:37.363Z,10.20
2023-04-08T08:01:03.794Z,10.13
2023-04-08T08:03:31.874Z,9.57
2023-04-08T08:05:59.686Z,9.93
2023-04-08T08:08:26.065Z,10.75
2023-04-08T08:10:52.740Z,10.20
2023-04-08T08:13:21.963Z,10.05
2023-04-08T08:15:52.639Z,9.73
2023-04-08T08:18:19.324Z,9.73
2023-04-08T08:20:45.648Z,9.13
2023-04-08T08:23:12.044Z,9.27
2023-04-08T08:25:38.440Z,8.93
2023-04-08T08:28:05.016Z,8.77
2023-04-08T08:30:32.308Z,9.30
2023-04-08T08:33:00.736Z,10.00
2023-04-08T08:35:27.190Z,8.95
2023-04-08T08:37:53.566Z,9.63
2023-04-08T08:40:20.051Z,9.40
2023-04-08T08:42:52.736Z,10.05
2023-04-08T08:45:19.827Z,9.63
2023-04-08T08:47:46.853Z,10.00
2023-04-08T08:50:14.408Z,10.98
2023-04-08T08:52:48.374Z,11.70
2023-04-08T08:55:31.550Z,11.85
2023-04-08T08:58:02.282Z,11.70
2023-04-08T09:00:35.648Z,11.63
2023-04-08T09:03:22.742Z,10.43
2023-04-08T09:06:00.196Z,10.05
2023-04-08T09:08:36.906Z,10.32
2023-04-08T09:11:18.014Z,9.88
2023-04-08T09:13:45.498Z,10.38
2023-04-08T09:16:14.869Z,9.70
2023-04-08T09:18:44.289Z,9.75
2023-04-08T09:21:11.738Z,10.70
2023-04-08T09:23:46.122Z,10.25
2023-04-08T09:26:14.665Z,10.25
2023-04-08T09:28:42.025Z,10.13
2023-04-08T09:31:22.799Z,9.93
2023-04-08T09:33:50.838Z,10.23
2023-04-08T09:36:17.496Z,10.40
2023-04-08T09:38:44.552Z,9.90
2023-04-08T09:41:15.488Z,9.80
2023-04-08T09:43:48.902Z,10.25
2023-04-08T09:46:17.689Z,10.45
2023-04-08T09:48:55.348Z,8.30
2023-04-08T09:51:23.631Z,10.32
2023-04-08T09:54:00.554Z,10.65
2023-04-08T09:56:31.716Z,10.38
2023-04-08T09:59:00.502Z,9.73
2023-04-08T10:01:42.728Z,10.25
2023-04-08T10:04:12.757Z,10.50
2023-04-08T10:06:40.321Z,10.48
2023-04-08T10:09:07.427Z,10.13
2023-04-08T10:11:33.903Z,10.10
2023-04-08T10:14:01.041Z,8.25
2023-04-08T10:16:28.146Z,8.07
2023-04-08T10:18:58.094Z,8.13
2023-04-08T10:21:34.272Z,8.25
2023-04-08T10:24:05.862Z,7.85
2023-04-08T10:26:34.517Z,7.47
2023-04-08T10:29:18.891Z,7.85
2023-04-08T10:34:17.632Z,7.95
2023-04-08T10:36:47.662Z,8.38
2023-04-08T10:39:14.906Z,7.30
2023-04-08T10:41:44.772Z,6.85
2023-04-08T10:44:25.025Z,7.53
2023-04-08T10:46:52.436Z,7.15
2023-04-08T10:49:19.094Z,7.18
2023-04-08T10:51:46.545Z,6.97
2023-04-08T10:54:16.368Z,6.50
2023-04-08T10:56:49.391Z,7.10
2023-04-08T10:59:28.346Z,6.75
2023-04-08T11:01:55.393Z,6.03
2023-04-08T11:04:23.619Z,6.38
2023-04-08T11:06:50.201Z,5.82
2023-04-08T11:09:16.547Z,6.07
2023-04-08T11:11:44.688Z,5.25
2023-04-08T11:14:11.452Z,5.05
2023-04-08T11:16:39.090Z,5.45
2023-04-08T11:19:06.173Z,5.05
2023-04-08T11:21:35.467Z,5.35
2023-04-08T11:24:06.542Z,4.88
2023-04-08T11:26:33.159Z,4.40
2023-04-08T11:29:00.910Z,5.55
2023-04-08T11:31:27.391Z,4.88
2023-04-08T11:33:55.299Z,5.47
2023-04-08T11:36:21.822Z,4.88
2023-04-08T11:38:50.011Z,5.03
2023-04-08T11:41:16.676Z,5.30
2023-04-08T11:43:56.503Z,5.30
2023-04-08T11:46:23.768Z,5.40
2023-04-08T11:49:08.181Z,5.38
2023-04-08T11:54:06.508Z,4.93
2023-04-08T11:56:45.016Z,4.95
2023-04-08T11:59:11.438Z,4.70
2023-04-08T12:01:37.845Z,4.95
2023-04-08T12:04:04.744Z,5.45
2023-04-08T12:06:31.640Z,5.35
2023-04-08T12:08:58.107Z,5.10
2023-04-08T12:11:24.568Z,5.10
2023-04-08T12:13:51.335Z,6.00
2023-04-08T12:16:18.959Z,5.80
2023-04-08T12:18:45.427Z,5.68
2023-04-08T12:21:11.950Z,4.72
2023-04-08T12:23:38.345Z,4.93
2023-04-08T12:26:04.812Z,5.78
2023-04-08T12:28:31.253Z,4.88
2023-04-08T12:30:57.657Z,4.65
2023-04-08T12:33:24.050Z,5.32
2023-04-08T12:35:50.535Z,5.25
2023-04-08T12:38:17.415Z,5.32
2023-04-08T12:40:43.749Z,5.07
2023-04-08T12:43:10.100Z,5.28
2023-04-08T12:45:36.510Z,5.28
2023-04-08T12:48:02.964Z,5.18
2023-04-08T12:50:29.315Z,5.30
2023-04-08T12:52:55.957Z,4.70
2023-04-08T12:55:24.963Z,5.82
2023-04-08T12:57:52.219Z,5.45
2023-04-08T13:00:19.312Z,5.45
2023-04-08T13:02:46.496Z,5.50
2023-04-08T13:05:12.920Z,7.88
2023-04-08T13:07:39.273Z,7.65
2023-04-08T13:10:06.955Z,6.47
2023-04-08T13:12:33.365Z,6.80
2023-04-08T13:15:01.165Z,5.18
2023-04-08T13:17:28.029Z,4.10
2023-04-08T13:19:54.579Z,5.10
2023-04-08T13:22:21.010Z,4.63
2023-04-08T13:24:47.919Z,4.22
2023-04-08T13:27:16.004Z,4.97
2023-04-08T13:29:42.432Z,4.15
2023-04-08T13:32:08.882Z,4.20
2023-04-08T13:34:35.332Z,4.35
2023-04-08T13:37:02.109Z,4.05
2023-04-08T13:39:28.528Z,4.45
2023-04-08T13:41:54.944Z,4.40
2023-04-08T13:44:21.296Z,5.00
2023-04-08T13:46:47.630Z,4.93
2023-04-08T13:49:14.485Z,4.13
2023-04-08T13:51:41.083Z,4.50
2023-04-08T13:54:07.479Z,4.82
2023-04-08T13:56:34.030Z,4.80
2023-04-08T13:59:00.832Z,5.25
2023-04-08T14:01:27.386Z,4.95
2023-04-08T14:03:53.775Z,4.82
2023-04-08T14:06:20.136Z,4.68
2023-04-08T14:08:46.484Z,4.75
2023-04-08T14:11:12.912Z,4.30
2023-04-08T14:13:39.307Z,4.50
2023-04-08T14:16:05.791Z,4.65
2023-04-08T14:18:32.344Z,4.60
2023-04-08T14:20:58.685Z,4.47
2023-04-08T14:23:25.215Z,4.43
2023-04-08T14:25:51.550Z,4.10
2023-04-08T14:28:17.880Z,3.85
2023-04-08T14:30:44.333Z,3.67
2023-04-08T14:33:11.100Z,4.10
2023-04-08T14:35:37.728Z,4.38
2023-04-08T14:38:04.282Z,4.70
2023-04-08T14:40:30.692Z,4.22
2023-04-08T14:42:57.125Z,5.85
2023-04-08T14:45:23.491Z,5.63
2023-04-08T14:47:50.371Z,5.30
2023-04-08T14:50:16.788Z,6.03
2023-04-08T14:52:45.055Z,5.18
2023-04-08T14:55:11.643Z,6.00
2023-04-08T14:57:37.990Z,5.85
2023-04-08T15:00:05.035Z,6.15
2023-04-08T15:02:31.499Z,6.65
2023-04-08T15:04:57.980Z,6.22
2023-04-08T15:07:24.452Z,6.88
2023-04-08T15:09:52.036Z,6.72
2023-04-08T15:12:18.417Z,6.30
2023-04-08T15:14:44.789Z,7.18
2023-04-08T15:17:11.165Z,6.57
2023-04-08T15:19:37.490Z,6.60
2023-04-08T15:22:03.857Z,6.40
2023-04-08T15:24:30.220Z,6.13
2023-04-08T15:26:56.588Z,7.25
2023-04-08T15:29:23.938Z,7.13
2023-04-08T15:31:50.324Z,7.35
2023-04-08T15:34:16.806Z,7.22
2023-04-08T15:36:43.219Z,7.30
2023-04-08T15:39:09.610Z,6.85
2023-04-08T15:41:36.002Z,6.93
2023-04-08T15:44:02.465Z,6.57
2023-04-08T15:46:28.863Z,7.35
2023-04-08T15:48:55.319Z,7.13
2023-04-08T15:51:21.898Z,6.15
2023-04-08T15:53:50.346Z,6.15
2023-04-08T15:56:17.843Z,6.15
2023-04-08T15:58:45.056Z,6.80
2023-04-08T16:01:12.228Z,6.75
2023-04-08T16:03:39.169Z,7.57
2023-04-08T16:06:06.095Z,7.47
2023-04-08T16:08:33.835Z,7.50
2023-04-08T16:11:04.406Z,7.38
2023-04-08T16:13:31.058Z,6.57
2023-04-08T16:15:58.248Z,6.72
2023-04-08T16:18:26.168Z,7.70
2023-04-08T16:20:52.865Z,6.85
2023-04-08T16:23:19.649Z,7.43
2023-04-08T16:25:46.261Z,6.93
2023-04-08T16:28:12.883Z,8.30
2023-04-08T16:30:43.881Z,8.07
2023-04-08T16:33:14.168Z,7.93
2023-04-08T16:35:40.598Z,8.43
2023-04-08T16:38:07.149Z,8.68
2023-04-08T16:40:34.553Z,8.50
2023-04-08T16:43:01.778Z,8.07
2023-04-08T16:45:29.460Z,8.75
2023-04-08T16:47:56.261Z,8.57
2023-04-08T16:50:22.703Z,8.55
2023-04-08T16:52:49.738Z,8.00
2023-04-08T16:55:16.929Z,8.07
2023-04-08T16:57:43.426Z,7.90
2023-04-08T17:00:10.767Z,9.15
2023-04-08T17:02:37.241Z,8.82
2023-04-08T17:05:03.852Z,9.80
2023-04-08T17:07:31.060Z,9.38
2023-04-08T17:09:59.093Z,9.63
2023-04-08T17:12:25.721Z,9.50
2023-04-08T17:14:52.243Z,10.30
2023-04-08T17:17:18.714Z,8.98
2023-04-08T17:19:45.082Z,8.30
2023-04-08T17:22:11.404Z,8.65
2023-04-08T17:24:38.033Z,7.93
2023-04-08T17:27:05.354Z,8.02
2023-04-08T17:29:31.979Z,8.05
2023-04-08T17:31:58.307Z,7.25
2023-04-08T17:34:24.857Z,7.30
2023-04-08T17:36:51.415Z,8.13
2023-04-08T17:39:18.413Z,7.63
2023-04-08T17:41:45.969Z,7.57
2023-04-08T17:44:14.107Z,7.25
2023-04-08T17:46:41.459Z,7.50
2023-04-08T17:49:07.931Z,7.32
2023-04-08T17:51:35.093Z,6.82
2023-04-08T17:54:01.470Z,7.15
2023-04-08T17:56:28.198Z,6.55
2023-04-08T17:58:54.581Z,6.65
2023-04-08T18:01:22.530Z,6.97
2023-04-08T18:03:51.211Z,6.57
2023-04-08T18:06:22.413Z,5.82
2023-04-08T18:08:48.820Z,5.50
2023-04-08T18:11:15.559Z,5.32
2023-04-08T18:13:41.916Z,4.72
2023-04-08T18:16:16.967Z,4.55
2023-04-08T18:18:43.489Z,4.70
2023-04-08T18:21:09.859Z,3.78
2023-04-08T18:23:37.458Z,4.68
2023-04-08T18:26:04.061Z,4.20
2023-04-08T18:28:30.416Z,4.50
2023-04-08T18:30:56.780Z,4.40
2023-04-08T18:33:23.505Z,3.95
2023-04-08T18:35:50.011Z,4.35
2023-04-08T18:38:16.972Z,4.10
2023-04-08T18:40:45.550Z,5.13
2023-04-08T18:43:13.652Z,4.57
2023-04-08T18:45:41.052Z,4.50
2023-04-08T18:48:08.169Z,4.13
2023-04-08T18:50:34.667Z,4.50
2023-04-08T18:53:01.108Z,4.55
2023-04-08T18:55:27.451Z,4.68
2023-04-08T18:57:54.204Z,4.55
2023-04-08T19:00:20.708Z,4.68
2023-04-08T19:02:47.183Z,4.78
2023-04-08T19:05:13.593Z,4.13
2023-04-08T19:07:40.126Z,4.88
2023-04-08T19:10:07.188Z,4.85
2023-04-08T19:12:33.560Z,4.97
2023-04-08T19:14:59.955Z,5.18
2023-04-08T19:17:26.373Z,4.43
2023-04-08T19:19:52.821Z,5.13
2023-04-08T19:22:19.204Z,4.88
2023-04-08T19:24:45.617Z,5.40
2023-04-08T19:27:13.904Z,5.35
2023-04-08T19:29:40.339Z,4.70
2023-04-08T19:32:07.606Z,5.35
2023-04-08T19:34:38.329Z,4.88
2023-04-08T19:37:05.881Z,5.53
2023-04-08T19:39:32.260Z,5.22
2023-04-08T19:41:58.727Z,4.60
2023-04-08T19:44:25.133Z,5.82
2023-04-08T19:46:51.483Z,5.47
2023-04-08T19:49:19.745Z,5.35
2023-04-08T19:51:46.158Z,5.00
2023-04-08T19:54:12.613Z,5.43
2023-04-08T19:56:39.385Z,4.90
2023-04-08T19:59:05.829Z,5.13
2023-04-08T20:01:35.507Z,5.97
2023-04-08T20:04:02.500Z,5.32
2023-04-08T20:06:28.875Z,5.38
2023-04-08T20:08:55.196Z,5.95
2023-04-08T20:11:23.110Z,5.47
2023-04-08T20:13:51.173Z,5.53
2023-04-08T20:16:17.630Z,5.50
2023-04-08T20:18:44.029Z,5.32
2023-04-08T20:21:13.693Z,5.85
2023-04-08T20:23:44.104Z,5.45
2023-04-08T20:26:12.227Z,5.57
2023-04-08T20:28:38.761Z,5.95
2023-04-08T20:31:05.291Z,5.43
2023-04-08T20:33:31.665Z,6.20
2023-04-08T20:35:58.280Z,5.90
2023-04-08T20:38:28.086Z,5.30
2023-04-08T20:40:54.419Z,5.30
2023-04-08T20:43:20.732Z,6.03
2023-04-08T20:45:47.290Z,6.63
2023-04-08T20:48:13.737Z,6.50
2023-04-08T20:50:40.556Z,6.03
2023-04-08T20:53:07.311Z,6.97
2023-04-08T20:55:33.676Z,6.18
2023-04-08T20:58:05.378Z,5.97
2023-04-08T21:00:31.742Z,5.38
2023-04-08T21:02:58.202Z,6.18
2023-04-08T21:05:24.646Z,6.32
2023-04-08T21:07:51.051Z,5.82
2023-04-08T21:10:17.695Z,6.43
2023-04-08T21:12:54.610Z,5.75
2023-04-08T21:15:21.249Z,6.00
2023-04-08T21:17:48.061Z,5.82
2023-04-08T21:20:14.851Z,6.50
2023-04-08T21:22:41.900Z,6.53
2023-04-08T21:25:08.481Z,6.78
2023-04-08T21:27:35.613Z,5.90
2023-04-08T21:30:02.018Z,6.85
2023-04-08T21:32:30.229Z,6.50
2023-04-08T21:34:57.562Z,6.20
2023-04-08T21:37:23.957Z,6.53
2023-04-08T21:39:50.496Z,6.57
2023-04-08T21:42:16.963Z,6.32
2023-04-08T21:44:45.442Z,6.57
2023-04-08T21:47:11.849Z,5.97
2023-04-08T21:49:38.279Z,6.35
2023-04-08T21:52:07.326Z,6.43
2023-04-08T21:54:33.735Z,6.20
2023-04-08T21:57:01.282Z,6.07
2023-04-08T21:59:28.022Z,7.05
2023-04-08T22:01:54.418Z,6.13
2023-04-08T22:04:20.809Z,6.15
2023-04-08T22:06:49.354Z,6.35
2023-04-08T22:09:16.885Z,6.03
2023-04-08T22:11:43.284Z,6.30
2023-04-08T22:14:09.736Z,6.68
2023-04-08T22:16:36.656Z,6.32
2023-04-08T22:19:03.124Z,5.80
2023-04-08T22:21:30.895Z,6.55
2023-04-08T22:23:57.251Z,5.70
2023-04-08T22:26:23.958Z,6.20
2023-04-08T22:28:50.926Z,6.68
2023-04-08T22:31:17.650Z,7.28
2023-04-08T22:33:44.036Z,6.88
2023-04-08T22:36:10.695Z,6.30
2023-04-08T22:38:37.463Z,6.43
2023-04-08T22:41:04.026Z,6.88
2023-04-08T22:43:30.544Z,7.18
2023-04-08T22:45:56.940Z,6.50
2023-04-08T22:48:23.319Z,7.75
2023-04-08T22:50:49.673Z,8.68
2023-04-08T22:53:16.188Z,7.90
2023-04-08T22:55:42.567Z,8.18
2023-04-08T22:58:09.010Z,8.05
2023-04-08T23:00:35.559Z,8.45
2023-04-08T23:03:04.524Z,8.32
2023-04-08T23:05:31.193Z,7.85
2023-04-08T23:07:57.550Z,8.13
2023-04-08T23:10:23.926Z,7.95
2023-04-08T23:12:50.625Z,8.00
2023-04-08T23:15:17.035Z,7.30
2023-04-08T23:17:43.453Z,8.07
2023-04-08T23:20:10.164Z,7.57
2023-04-08T23:22:36.491Z,7.93
2023-04-08T23:25:02.858Z,6.50
2023-04-08T23:27:29.240Z,6.90
2023-04-08T23:29:55.997Z,6.57
2023-04-08T23:32:22.366Z,6.40
2023-04-08T23:34:48.780Z,6.28
2023-04-08T23:37:15.373Z,6.78
2023-04-08T23:39:41.764Z,7.25
2023-04-08T23:42:08.165Z,7.55
2023-04-08T23:44:34.499Z,8.48
2023-04-08T23:47:00.861Z,8.95
2023-04-08T23:49:27.338Z,9.88
2023-04-08T23:51:53.680Z,9.05
2023-04-08T23:54:20.186Z,8.35
2023-04-08T23:56:46.585Z,8.10
2023-04-08T23:59:13.022Z,8.77
